createdAt,value
2017-07-08T00:00:38.306Z,16.7
2017-07-08T00:01:40.377Z,16.6
2017-07-08T00:02:42.454Z,16.7
2017-07-08T00:03:44.509Z,16.6
2017-07-08T00:04:46.576Z,16.6
2017-07-08T00:05:48.641Z,16.6
2017-07-08T00:06:50.699Z,16.6
2017-07-08T00:07:52.972Z,16.6
2017-07-08T00:08:55.037Z,16.6
2017-07-08T00:09:57.105Z,16.6
2017-07-08T00:10:59.172Z,16.6
2017-07-08T00:12:01.229Z,16.6
2017-07-08T00:13:03.298Z,16.6
2017-07-08T00:14:05.373Z,16.6
2017-07-08T00:15:07.445Z,16.6
2017-07-08T00:16:09.842Z,16.7
2017-07-08T00:17:11.923Z,16.7
2017-07-08T00:18:13.984Z,16.7
2017-07-08T00:19:16.049Z,16.7
2017-07-08T00:20:18.113Z,16.7
2017-07-08T00:21:20.176Z,16.7
2017-07-08T00:22:22.241Z,16.7
2017-07-08T00:23:24.311Z,16.7
2017-07-08T00:24:26.370Z,16.7
2017-07-08T00:25:28.438Z,16.7
2017-07-08T00:26:30.497Z,16.7
2017-07-08T00:27:32.564Z,16.8
2017-07-08T00:28:34.625Z,16.7
2017-07-08T00:29:36.687Z,16.7
2017-07-08T00:30:38.757Z,16.8
2017-07-08T00:31:40.825Z,16.8
2017-07-08T00:32:42.882Z,16.8
2017-07-08T00:33:44.957Z,16.8
2017-07-08T00:34:47.023Z,16.8
2017-07-08T00:35:49.099Z,16.8
2017-07-08T00:36:51.165Z,16.8
2017-07-08T00:37:53.239Z,16.8
2017-07-08T00:38:55.299Z,16.8
2017-07-08T00:39:57.374Z,16.8
2017-07-08T00:40:59.438Z,16.8
2017-07-08T00:42:01.875Z,16.8
2017-07-08T00:43:03.934Z,16.8
2017-07-08T00:44:05.999Z,16.8
2017-07-08T00:45:08.068Z,16.8
2017-07-08T00:46:10.131Z,16.8
2017-07-08T00:47:12.194Z,16.8
2017-07-08T00:48:14.255Z,16.9
2017-07-08T00:49:16.328Z,16.9
2017-07-08T00:50:18.395Z,16.9
2017-07-08T00:51:20.450Z,16.9
2017-07-08T00:52:22.520Z,16.9
2017-07-08T00:53:24.590Z,16.9
2017-07-08T00:54:26.660Z,16.9
2017-07-08T00:55:28.718Z,16.9
2017-07-08T00:56:30.779Z,16.9
2017-07-08T00:57:32.847Z,16.9
2017-07-08T00:58:34.921Z,16.9
2017-07-08T00:59:36.993Z,16.9
2017-07-08T01:00:39.053Z,16.9
2017-07-08T01:01:41.117Z,16.9
2017-07-08T01:02:43.184Z,16.9
2017-07-08T01:03:45.247Z,16.9
2017-07-08T01:04:47.657Z,16.9
2017-07-08T01:05:49.732Z,16.9
2017-07-08T01:06:52.143Z,16.9
2017-07-08T01:07:54.189Z,16.9
2017-07-08T01:08:56.257Z,16.9
2017-07-08T01:09:58.322Z,16.9
2017-07-08T01:11:00.387Z,16.9
2017-07-08T01:12:02.463Z,16.9
2017-07-08T01:13:04.528Z,16.9
2017-07-08T01:14:06.598Z,16.9
2017-07-08T01:15:08.658Z,16.9
2017-07-08T01:16:10.726Z,16.9
2017-07-08T01:17:12.806Z,16.9
2017-07-08T01:18:14.866Z,16.9
2017-07-08T01:19:16.928Z,16.9
2017-07-08T01:20:18.994Z,17
2017-07-08T01:21:21.063Z,17
2017-07-08T01:22:23.121Z,17
2017-07-08T01:23:25.185Z,17
2017-07-08T01:24:27.605Z,17
2017-07-08T01:25:29.665Z,17
2017-07-08T01:26:31.730Z,17
2017-07-08T01:27:33.800Z,17
2017-07-08T01:28:35.859Z,17.1
2017-07-08T01:29:37.925Z,17.1
2017-07-08T01:30:39.993Z,17.2
2017-07-08T01:31:42.061Z,17.2
2017-07-08T01:32:44.133Z,17.3
2017-07-08T01:33:46.196Z,17.3
2017-07-08T01:34:48.266Z,17.3
2017-07-08T01:35:50.323Z,17.3
2017-07-08T01:36:52.388Z,17.3
2017-07-08T01:37:54.455Z,17.3
2017-07-08T01:38:56.526Z,17.4
2017-07-08T01:39:58.594Z,17.4
2017-07-08T01:41:00.668Z,17.4
2017-07-08T01:42:02.735Z,17.4
2017-07-08T01:43:05.138Z,17.4
2017-07-08T01:44:07.193Z,17.4
2017-07-08T01:45:09.254Z,17.4
2017-07-08T01:46:11.319Z,17.4
2017-07-08T01:47:13.386Z,17.4
2017-07-08T01:48:15.449Z,17.4
2017-07-08T01:49:17.516Z,17.5
2017-07-08T01:50:19.576Z,17.5
2017-07-08T01:51:21.644Z,17.5
2017-07-08T01:52:23.704Z,17.5
2017-07-08T01:53:25.773Z,17.5
2017-07-08T01:54:27.838Z,17.5
2017-07-08T01:55:29.899Z,17.5
2017-07-08T01:56:32.311Z,17.5
2017-07-08T01:57:34.381Z,17.5
2017-07-08T01:58:36.442Z,17.5
2017-07-08T01:59:38.516Z,17.5
2017-07-08T02:00:40.583Z,17.5
2017-07-08T02:01:42.646Z,17.5
2017-07-08T02:02:44.711Z,17.5
2017-07-08T02:03:46.771Z,17.5
2017-07-08T02:04:48.849Z,17.5
2017-07-08T02:05:50.916Z,17.5
2017-07-08T02:06:52.975Z,17.5
2017-07-08T02:07:55.048Z,17.4
2017-07-08T02:08:57.119Z,17.4
2017-07-08T02:09:59.190Z,17.4
2017-07-08T02:11:01.257Z,17.4
2017-07-08T02:12:03.318Z,17.5
2017-07-08T02:13:05.379Z,17.4
2017-07-08T02:14:07.456Z,17.5
2017-07-08T02:15:09.513Z,17.5
2017-07-08T02:16:11.581Z,17.5
2017-07-08T02:17:13.658Z,17.5
2017-07-08T02:18:15.718Z,17.5
2017-07-08T02:19:17.784Z,17.5
2017-07-08T02:20:19.838Z,17.5
2017-07-08T02:21:21.908Z,17.5
2017-07-08T02:22:23.967Z,17.5
2017-07-08T02:23:26.018Z,17.5
2017-07-08T02:24:28.430Z,17.5
2017-07-08T02:25:30.496Z,17.5
2017-07-08T02:26:32.561Z,17.5
2017-07-08T02:27:34.628Z,17.5
2017-07-08T02:28:36.697Z,17.5
2017-07-08T02:29:38.774Z,17.5
2017-07-08T02:30:40.831Z,17.4
2017-07-08T02:31:42.895Z,17.4
2017-07-08T02:32:44.963Z,17.4
2017-07-08T02:33:47.024Z,17.4
2017-07-08T02:34:49.094Z,17.4
2017-07-08T02:35:51.156Z,17.4
2017-07-08T02:36:53.226Z,17.4
2017-07-08T02:37:55.298Z,17.4
2017-07-08T02:38:57.361Z,17.4
2017-07-08T02:39:59.429Z,17.4
2017-07-08T02:41:01.495Z,17.4
2017-07-08T02:42:03.559Z,17.4
2017-07-08T02:43:05.623Z,17.4
2017-07-08T02:44:07.684Z,17.3
2017-07-08T02:45:09.760Z,17.3
2017-07-08T02:46:11.823Z,17.3
2017-07-08T02:47:13.881Z,17.3
2017-07-08T02:48:15.955Z,17.3
2017-07-08T02:49:18.030Z,17.3
2017-07-08T02:50:20.094Z,17.3
2017-07-08T02:51:22.162Z,17.3
2017-07-08T02:52:24.221Z,17.3
2017-07-08T02:53:26.292Z,17.3
2017-07-08T02:54:28.355Z,17.3
2017-07-08T02:55:30.419Z,17.3
2017-07-08T02:56:32.499Z,17.3
2017-07-08T02:57:34.561Z,17.3
2017-07-08T02:58:36.623Z,17.3
2017-07-08T02:59:38.691Z,17.3
2017-07-08T03:00:40.760Z,17.3
2017-07-08T03:01:42.831Z,17.3
2017-07-08T03:02:44.890Z,17.3
2017-07-08T03:03:46.961Z,17.3
2017-07-08T03:04:49.031Z,17.3
2017-07-08T03:05:51.098Z,17.3
2017-07-08T03:06:53.159Z,17.3
2017-07-08T03:07:55.221Z,17.3
2017-07-08T03:08:57.299Z,17.3
2017-07-08T03:09:59.366Z,17.3
2017-07-08T03:11:01.419Z,17.3
2017-07-08T03:12:03.487Z,17.3
2017-07-08T03:13:05.552Z,17.3
2017-07-08T03:14:07.621Z,17.3
2017-07-08T03:15:09.687Z,17.3
2017-07-08T03:16:11.748Z,17.3
2017-07-08T03:17:13.817Z,17.3
2017-07-08T03:18:15.872Z,17.3
2017-07-08T03:19:17.938Z,17.3
2017-07-08T03:20:20.352Z,17.3
2017-07-08T03:21:22.417Z,17.2
2017-07-08T03:22:24.482Z,17.3
2017-07-08T03:23:26.546Z,17.3
2017-07-08T03:24:28.611Z,17.2
2017-07-08T03:25:30.681Z,17.2
2017-07-08T03:26:32.746Z,17.2
2017-07-08T03:27:34.812Z,17.3
2017-07-08T03:28:36.882Z,17.2
2017-07-08T03:29:38.941Z,17.2
2017-07-08T03:30:41.017Z,17.2
2017-07-08T03:31:43.078Z,17.2
2017-07-08T03:32:45.144Z,17.2
2017-07-08T03:33:47.217Z,17.2
2017-07-08T03:34:49.283Z,17.2
2017-07-08T03:35:51.352Z,17.2
2017-07-08T03:36:53.428Z,17.2
2017-07-08T03:37:55.486Z,17.2
2017-07-08T03:38:57.547Z,17.2
2017-07-08T03:39:59.613Z,17.2
2017-07-08T03:41:01.690Z,17.2
2017-07-08T03:42:03.747Z,17.2
2017-07-08T03:43:05.812Z,17.2
2017-07-08T03:44:07.892Z,17.2
2017-07-08T03:45:09.954Z,17.2
2017-07-08T03:46:12.013Z,17.2
2017-07-08T03:47:14.078Z,17.2
2017-07-08T03:48:16.147Z,17.2
2017-07-08T03:49:18.218Z,17.2
2017-07-08T03:50:20.284Z,17.2
2017-07-08T03:51:22.343Z,17.2
2017-07-08T03:52:24.764Z,17.2
2017-07-08T03:53:26.823Z,17.2
2017-07-08T03:54:28.904Z,17.2
2017-07-08T03:55:30.964Z,17.2
2017-07-08T03:56:33.034Z,17.2
2017-07-08T03:57:35.099Z,17.2
2017-07-08T03:58:37.172Z,17.2
2017-07-08T03:59:39.234Z,17.2
2017-07-08T04:00:41.304Z,17.2
2017-07-08T04:01:43.370Z,17.2
2017-07-08T04:02:45.785Z,17.2
2017-07-08T04:03:47.853Z,17.2
2017-07-08T04:04:49.916Z,17.3
2017-07-08T04:05:51.985Z,17.2
2017-07-08T04:06:54.050Z,17.2
2017-07-08T04:07:56.113Z,17.2
2017-07-08T04:08:58.187Z,17.2
2017-07-08T04:10:00.246Z,17.2
2017-07-08T04:11:02.317Z,17.2
2017-07-08T04:12:04.749Z,17.2
2017-07-08T04:13:06.814Z,17.2
2017-07-08T04:14:08.878Z,17.3
2017-07-08T04:15:10.942Z,17.3
2017-07-08T04:16:13.015Z,17.3
2017-07-08T04:17:15.087Z,17.3
2017-07-08T04:18:17.156Z,17.3
2017-07-08T04:19:19.232Z,17.3
2017-07-08T04:20:21.296Z,17.3
2017-07-08T04:21:23.365Z,17.3
2017-07-08T04:22:25.426Z,17.4
2017-07-08T04:23:27.495Z,17.4
2017-07-08T04:24:29.560Z,17.3
2017-07-08T04:25:31.631Z,17.4
2017-07-08T04:26:33.706Z,17.4
2017-07-08T04:27:35.773Z,17.4
2017-07-08T04:28:37.835Z,17.4
2017-07-08T04:29:39.900Z,17.4
2017-07-08T04:30:41.965Z,17.4
2017-07-08T04:31:44.028Z,17.4
2017-07-08T04:32:46.100Z,17.4
2017-07-08T04:33:48.520Z,17.4
2017-07-08T04:34:50.584Z,17.4
2017-07-08T04:35:52.649Z,17.4
2017-07-08T04:36:54.728Z,17.4
2017-07-08T04:37:56.790Z,17.4
2017-07-08T04:38:58.862Z,17.4
2017-07-08T04:40:00.926Z,17.4
2017-07-08T04:41:02.994Z,17.5
2017-07-08T04:42:05.070Z,17.5
2017-07-08T04:43:07.133Z,17.4
2017-07-08T04:44:09.202Z,17.4
2017-07-08T04:45:11.257Z,17.4
2017-07-08T04:46:13.323Z,17.4
2017-07-08T04:47:15.392Z,17.4
2017-07-08T04:48:17.458Z,17.4
2017-07-08T04:49:19.528Z,17.4
2017-07-08T04:50:21.603Z,17.4
2017-07-08T04:51:23.664Z,17.5
2017-07-08T04:52:25.737Z,17.5
2017-07-08T04:53:27.798Z,17.4
2017-07-08T04:54:29.877Z,17.5
2017-07-08T04:55:31.949Z,17.5
2017-07-08T04:56:34.022Z,17.5
2017-07-08T04:57:36.093Z,17.5
2017-07-08T04:58:38.171Z,17.5
2017-07-08T04:59:40.234Z,17.5
2017-07-08T05:00:42.304Z,17.5
2017-07-08T05:01:44.374Z,17.5
2017-07-08T05:02:46.446Z,17.5
2017-07-08T05:03:48.509Z,17.5
2017-07-08T05:04:50.573Z,17.5
2017-07-08T05:05:52.641Z,17.5
2017-07-08T05:06:54.719Z,17.5
2017-07-08T05:07:56.779Z,17.5
2017-07-08T05:08:58.847Z,17.5
2017-07-08T05:10:00.920Z,17.5
2017-07-08T05:11:02.982Z,17.5
2017-07-08T05:12:05.050Z,17.5
2017-07-08T05:13:07.460Z,17.5
2017-07-08T05:14:09.533Z,17.5
2017-07-08T05:15:11.602Z,17.5
2017-07-08T05:16:13.661Z,17.5
2017-07-08T05:17:16.089Z,17.5
2017-07-08T05:18:18.165Z,17.5
2017-07-08T05:19:20.230Z,17.6
2017-07-08T05:20:22.302Z,17.6
2017-07-08T05:21:24.371Z,17.6
2017-07-08T05:22:26.442Z,17.6
2017-07-08T05:23:28.512Z,17.7
2017-07-08T05:24:30.589Z,17.7
2017-07-08T05:25:32.642Z,17.7
2017-07-08T05:26:34.724Z,17.7
2017-07-08T05:27:36.780Z,17.7
2017-07-08T05:28:38.848Z,17.7
2017-07-08T05:29:40.917Z,17.7
2017-07-08T05:30:42.997Z,17.7
2017-07-08T05:31:45.077Z,17.8
2017-07-08T05:32:47.137Z,17.8
2017-07-08T05:33:49.206Z,17.8
2017-07-08T05:34:51.273Z,17.7
2017-07-08T05:35:53.337Z,17.7
2017-07-08T05:36:55.410Z,17.8
2017-07-08T05:37:57.485Z,17.8
2017-07-08T05:38:59.561Z,17.8
2017-07-08T05:40:01.626Z,17.8
2017-07-08T05:41:03.692Z,17.8
2017-07-08T05:42:05.770Z,17.8
2017-07-08T05:43:07.833Z,17.8
2017-07-08T05:44:09.908Z,17.8
2017-07-08T05:45:11.982Z,17.8
2017-07-08T05:46:14.048Z,17.9
2017-07-08T05:47:16.111Z,17.9
2017-07-08T05:48:18.190Z,17.9
2017-07-08T05:49:20.274Z,17.9
2017-07-08T05:50:22.343Z,18
2017-07-08T05:51:24.417Z,17.9
2017-07-08T05:52:26.842Z,17.9
2017-07-08T05:53:28.904Z,18
2017-07-08T05:54:30.977Z,17.9
2017-07-08T05:55:33.052Z,17.9
2017-07-08T05:56:35.119Z,17.9
2017-07-08T05:57:37.190Z,17.9
2017-07-08T05:58:39.277Z,17.9
2017-07-08T05:59:41.338Z,18
2017-07-08T06:00:43.402Z,18
2017-07-08T06:01:45.473Z,18
2017-07-08T06:02:47.543Z,18
2017-07-08T06:03:49.607Z,18
2017-07-08T06:04:51.674Z,18
2017-07-08T06:05:53.753Z,18.1
2017-07-08T06:06:55.826Z,18.1
2017-07-08T06:07:57.888Z,18.1
2017-07-08T06:08:59.971Z,18.1
2017-07-08T06:10:02.043Z,18.1
2017-07-08T06:11:04.124Z,18.2
2017-07-08T06:12:06.192Z,18.2
2017-07-08T06:13:08.264Z,18.2
2017-07-08T06:14:10.339Z,18.1
2017-07-08T06:15:12.401Z,18.1
2017-07-08T06:16:14.469Z,18.1
2017-07-08T06:17:16.538Z,18.1
2017-07-08T06:18:18.604Z,18.1
2017-07-08T06:19:20.681Z,18.1
2017-07-08T06:20:22.745Z,18.1
2017-07-08T06:21:24.819Z,18.1
2017-07-08T06:22:26.883Z,18.2
2017-07-08T06:23:28.948Z,18.1
2017-07-08T06:24:31.019Z,18.2
2017-07-08T06:25:33.088Z,18.3
2017-07-08T06:26:35.164Z,18.3
2017-07-08T06:27:37.234Z,18.3
2017-07-08T06:28:39.304Z,18.3
2017-07-08T06:29:41.388Z,18.4
2017-07-08T06:30:43.451Z,18.5
2017-07-08T06:31:58.268Z,18.6
2017-07-08T06:33:00.343Z,18.7
2017-07-08T06:34:02.404Z,18.8
2017-07-08T06:35:04.473Z,18.7
2017-07-08T06:36:06.585Z,18.7
2017-07-08T06:37:08.663Z,18.7
2017-07-08T06:38:11.086Z,18.8
2017-07-08T06:39:13.156Z,18.8
2017-07-08T06:40:15.226Z,18.9
2017-07-08T06:41:17.358Z,18.8
2017-07-08T06:42:19.370Z,18.8
2017-07-08T06:43:21.443Z,18.8
2017-07-08T06:44:23.519Z,18.7
2017-07-08T06:45:25.593Z,18.8
2017-07-08T06:46:27.657Z,18.8
2017-07-08T06:47:30.077Z,18.8
2017-07-08T06:48:32.153Z,18.7
2017-07-08T06:49:34.222Z,18.8
2017-07-08T06:50:36.291Z,18.7
2017-07-08T06:51:38.361Z,18.8
2017-07-08T06:52:40.435Z,18.8
2017-07-08T06:53:42.504Z,18.7
2017-07-08T06:54:44.573Z,18.7
2017-07-08T06:55:46.661Z,18.7
2017-07-08T06:56:48.733Z,18.8
2017-07-08T06:57:50.810Z,18.8
2017-07-08T06:58:52.884Z,18.8
2017-07-08T06:59:54.954Z,18.8
2017-07-08T07:00:57.028Z,18.8
2017-07-08T07:01:59.095Z,18.8
2017-07-08T07:03:01.173Z,18.7
2017-07-08T07:04:03.251Z,18.8
2017-07-08T07:05:05.311Z,18.8
2017-07-08T07:06:07.391Z,18.8
2017-07-08T07:07:09.467Z,18.8
2017-07-08T07:08:11.541Z,18.8
2017-07-08T07:09:13.624Z,18.8
2017-07-08T07:10:15.700Z,18.9
2017-07-08T07:11:17.772Z,19
2017-07-08T07:12:19.856Z,19
2017-07-08T07:13:21.936Z,19.1
2017-07-08T07:14:24.002Z,19.1
2017-07-08T07:15:26.089Z,19.1
2017-07-08T07:16:28.161Z,19.1
2017-07-08T07:17:30.242Z,19.1
2017-07-08T07:18:32.662Z,19
2017-07-08T07:19:34.733Z,19
2017-07-08T07:20:37.164Z,19.1
2017-07-08T07:21:39.225Z,19.1
2017-07-08T07:22:41.309Z,19.1
2017-07-08T07:23:43.395Z,19.1
2017-07-08T07:24:45.489Z,19.1
2017-07-08T07:25:47.562Z,19.1
2017-07-08T07:26:49.644Z,19.1
2017-07-08T07:27:51.728Z,19.1
2017-07-08T07:28:53.797Z,19.1
2017-07-08T07:29:55.870Z,19.1
2017-07-08T07:30:58.283Z,19.1
2017-07-08T07:32:00.361Z,19.1
2017-07-08T07:33:02.438Z,19.1
2017-07-08T07:34:04.509Z,19.1
2017-07-08T07:35:06.589Z,19.1
2017-07-08T07:36:08.674Z,19.1
2017-07-08T07:37:10.739Z,19.1
2017-07-08T07:38:12.821Z,19.1
2017-07-08T07:39:14.892Z,19.1
2017-07-08T07:40:16.965Z,19.1
2017-07-08T07:41:19.042Z,19.1
2017-07-08T07:42:21.112Z,19.1
2017-07-08T07:43:23.552Z,19.2
2017-07-08T07:44:25.971Z,19.2
2017-07-08T07:45:28.055Z,19.2
2017-07-08T07:46:30.143Z,19.3
2017-07-08T07:47:32.231Z,19.2
2017-07-08T07:48:34.308Z,19.3
2017-07-08T07:49:36.396Z,19.4
2017-07-08T07:50:38.477Z,19.4
2017-07-08T07:51:40.568Z,19.5
2017-07-08T07:52:42.649Z,19.4
2017-07-08T07:53:44.729Z,19.5
2017-07-08T07:54:46.797Z,19.5
2017-07-08T07:55:48.878Z,19.5
2017-07-08T07:56:50.960Z,19.5
2017-07-08T07:57:53.049Z,19.5
2017-07-08T07:58:55.128Z,19.4
2017-07-08T07:59:57.208Z,19.4
2017-07-08T08:00:59.286Z,19.5
2017-07-08T08:02:01.363Z,19.5
2017-07-08T08:03:03.447Z,19.5
2017-07-08T08:04:05.533Z,19.6
2017-07-08T08:05:07.609Z,19.7
2017-07-08T08:06:09.682Z,19.7
2017-07-08T08:07:11.761Z,19.8
2017-07-08T08:08:13.846Z,19.8
2017-07-08T08:09:15.928Z,19.8
2017-07-08T08:10:18.345Z,19.8
2017-07-08T08:11:20.421Z,19.7
2017-07-08T08:12:22.500Z,19.7
2017-07-08T08:13:24.584Z,19.8
2017-07-08T08:14:26.656Z,19.8
2017-07-08T08:15:28.727Z,19.9
2017-07-08T08:16:30.812Z,20.1
2017-07-08T08:17:32.882Z,20.1
2017-07-08T08:18:34.953Z,20.2
2017-07-08T08:19:37.026Z,20.3
2017-07-08T08:20:39.094Z,20.4
2017-07-08T08:21:41.170Z,20.6
2017-07-08T08:22:43.247Z,20.6
2017-07-08T08:23:45.323Z,20.7
2017-07-08T08:24:47.412Z,20.7
2017-07-08T08:25:49.478Z,20.7
2017-07-08T08:26:51.555Z,20.7
2017-07-08T08:27:53.639Z,20.5
2017-07-08T08:28:55.718Z,20.5
2017-07-08T08:29:57.799Z,20.6
2017-07-08T08:31:00.214Z,20.7
2017-07-08T08:32:02.284Z,20.9
2017-07-08T08:33:04.364Z,21
2017-07-08T08:34:06.453Z,21.2
2017-07-08T08:35:08.519Z,21.2
2017-07-08T08:36:10.614Z,21.2
2017-07-08T08:37:12.688Z,21
2017-07-08T08:38:14.772Z,21
2017-07-08T08:39:16.853Z,21
2017-07-08T08:40:18.930Z,20.8
2017-07-08T08:41:21.016Z,20.7
2017-07-08T08:42:23.091Z,20.6
2017-07-08T08:43:25.184Z,20.6
2017-07-08T08:44:27.282Z,20.8
2017-07-08T08:45:29.346Z,21
2017-07-08T08:46:31.411Z,21.2
2017-07-08T08:47:33.493Z,21.2
2017-07-08T08:48:35.567Z,21.4
2017-07-08T08:49:37.645Z,21.4
2017-07-08T08:50:39.714Z,21.5
2017-07-08T08:51:41.810Z,21.6
2017-07-08T08:52:43.886Z,21.7
2017-07-08T08:53:45.965Z,21.8
2017-07-08T08:54:48.041Z,21.7
2017-07-08T08:55:50.122Z,21.8
2017-07-08T08:56:52.193Z,22.1
2017-07-08T08:57:54.270Z,22.3
2017-07-08T08:58:56.352Z,22.2
2017-07-08T08:59:58.436Z,22.5
2017-07-08T09:01:00.506Z,22.5
2017-07-08T09:02:02.586Z,22.6
2017-07-08T09:03:05.011Z,22.7
2017-07-08T09:04:07.083Z,22.7
2017-07-08T09:05:09.159Z,22.4
2017-07-08T09:06:11.574Z,22.2
2017-07-08T09:07:14.001Z,22.1
2017-07-08T09:08:16.070Z,21.9
2017-07-08T09:09:18.153Z,21.8
2017-07-08T09:10:20.239Z,21.8
2017-07-08T09:11:22.323Z,21.6
2017-07-08T09:12:24.397Z,21.6
2017-07-08T09:13:26.477Z,21.5
2017-07-08T09:14:28.555Z,21.5
2017-07-08T09:15:30.636Z,21.4
2017-07-08T09:16:32.708Z,21.5
2017-07-08T09:17:34.813Z,21.8
2017-07-08T09:18:36.890Z,22.1
2017-07-08T09:19:38.982Z,22.2
2017-07-08T09:20:41.073Z,22.4
2017-07-08T09:21:43.208Z,22.4
2017-07-08T09:22:45.297Z,22.6
2017-07-08T09:23:47.394Z,22.7
2017-07-08T09:24:49.486Z,22.7
2017-07-08T09:25:51.573Z,22.4
2017-07-08T09:26:53.655Z,22.3
2017-07-08T09:27:55.729Z,22.2
2017-07-08T09:28:57.811Z,22.2
2017-07-08T09:29:59.894Z,22
2017-07-08T09:31:01.976Z,22
2017-07-08T09:32:04.066Z,22
2017-07-08T09:33:06.154Z,22.2
2017-07-08T09:34:08.241Z,22.5
2017-07-08T09:35:10.398Z,22.7
2017-07-08T09:36:12.485Z,22.9
2017-07-08T09:37:14.566Z,23.1
2017-07-08T09:38:16.678Z,23.3
2017-07-08T09:39:18.761Z,23.4
2017-07-08T09:40:20.903Z,23.4
2017-07-08T09:41:23.034Z,23.4
2017-07-08T09:42:25.135Z,23.7
2017-07-08T09:43:27.206Z,23.7
2017-07-08T09:44:29.302Z,23.5
2017-07-08T09:45:31.390Z,23.5
2017-07-08T09:46:33.485Z,23.2
2017-07-08T09:47:35.572Z,23.4
2017-07-08T09:48:37.661Z,23.5
2017-07-08T09:49:39.736Z,23.2
2017-07-08T09:50:41.841Z,23.5
2017-07-08T09:51:43.912Z,23.4
2017-07-08T09:52:46.004Z,23.5
2017-07-08T09:53:48.084Z,23.7
2017-07-08T09:54:50.175Z,23.7
2017-07-08T09:55:52.265Z,23.6
2017-07-08T09:56:54.355Z,23.5
2017-07-08T09:57:56.441Z,23.3
2017-07-08T09:58:58.876Z,23.5
2017-07-08T10:00:00.951Z,23.6
2017-07-08T10:01:03.054Z,23.5
2017-07-08T10:02:05.486Z,23.4
2017-07-08T10:03:07.570Z,23.3
2017-07-08T10:04:09.658Z,23.2
2017-07-08T10:05:11.747Z,22.9
2017-07-08T10:06:13.836Z,23
2017-07-08T10:07:15.919Z,22.9
2017-07-08T10:08:18.009Z,22.8
2017-07-08T10:09:20.115Z,22.9
2017-07-08T10:10:22.198Z,23.4
2017-07-08T10:11:24.290Z,23.5
2017-07-08T10:12:26.384Z,23.6
2017-07-08T10:13:28.492Z,23.7
2017-07-08T10:14:30.565Z,23.4
2017-07-08T10:15:32.650Z,23.2
2017-07-08T10:16:34.733Z,23.4
2017-07-08T10:17:36.815Z,23.7
2017-07-08T10:18:38.907Z,23.5
2017-07-08T10:19:40.995Z,23.5
2017-07-08T10:20:43.080Z,23.5
2017-07-08T10:21:45.169Z,23.4
2017-07-08T10:22:47.251Z,23.4
2017-07-08T10:23:49.334Z,23.6
2017-07-08T10:24:51.419Z,23.6
2017-07-08T10:25:53.500Z,23.6
2017-07-08T10:26:55.601Z,23.5
2017-07-08T10:27:57.691Z,23.2
2017-07-08T10:28:59.777Z,23.1
2017-07-08T10:30:01.872Z,22.9
2017-07-08T10:31:03.966Z,22.9
2017-07-08T10:32:06.063Z,23.1
2017-07-08T10:33:08.144Z,23.3
2017-07-08T10:34:10.233Z,23.4
2017-07-08T10:35:12.319Z,23.7
2017-07-08T10:36:14.403Z,24
2017-07-08T10:37:16.834Z,24.3
2017-07-08T10:38:18.927Z,24.2
2017-07-08T10:39:21.006Z,24
2017-07-08T10:40:23.098Z,24.1
2017-07-08T10:41:25.194Z,24
2017-07-08T10:42:27.282Z,24.2
2017-07-08T10:43:29.393Z,24.4
2017-07-08T10:44:31.480Z,24.4
2017-07-08T10:45:33.587Z,24.1
2017-07-08T10:46:35.673Z,24
2017-07-08T10:47:37.754Z,23.9
2017-07-08T10:48:39.851Z,23.9
2017-07-08T10:49:41.939Z,23.9
2017-07-08T10:50:44.036Z,23.7
2017-07-08T10:51:46.131Z,23.6
2017-07-08T10:52:48.213Z,23.7
2017-07-08T10:53:50.310Z,23.5
2017-07-08T10:54:52.385Z,23.4
2017-07-08T10:55:54.491Z,23.3
2017-07-08T10:56:56.582Z,23.3
2017-07-08T10:57:58.675Z,23.1
2017-07-08T10:59:00.766Z,23.1
2017-07-08T11:00:02.863Z,23.1
2017-07-08T11:01:04.959Z,23.2
2017-07-08T11:02:07.042Z,23.2
2017-07-08T11:03:09.125Z,23.2
2017-07-08T11:04:11.195Z,23.4
2017-07-08T11:05:13.633Z,23.5
2017-07-08T11:06:15.726Z,23.5
2017-07-08T11:07:17.809Z,23.3
2017-07-08T11:08:19.886Z,23.1
2017-07-08T11:09:21.976Z,23
2017-07-08T11:10:24.054Z,23.4
2017-07-08T11:11:26.138Z,23.6
2017-07-08T11:12:28.222Z,23.8
2017-07-08T11:13:30.324Z,23.8
2017-07-08T11:14:32.408Z,23.5
2017-07-08T11:15:34.492Z,23.4
2017-07-08T11:16:36.575Z,23.4
2017-07-08T11:17:38.662Z,23.4
2017-07-08T11:18:40.758Z,23.3
2017-07-08T11:19:42.847Z,23.2
2017-07-08T11:20:44.935Z,23.1
2017-07-08T11:21:47.023Z,23.2
2017-07-08T11:22:49.111Z,23.4
2017-07-08T11:23:51.195Z,23.6
2017-07-08T11:24:53.282Z,23.7
2017-07-08T11:25:55.727Z,23.8
2017-07-08T11:26:57.809Z,23.7
2017-07-08T11:27:59.893Z,23.3
2017-07-08T11:29:01.984Z,23.4
2017-07-08T11:30:04.068Z,23.5
2017-07-08T11:31:06.149Z,23.6
2017-07-08T11:32:08.225Z,23.8
2017-07-08T11:33:10.313Z,23.9
2017-07-08T11:34:12.404Z,23.8
2017-07-08T11:35:14.481Z,24.1
2017-07-08T11:36:16.930Z,24.4
2017-07-08T11:37:19.046Z,24.6
2017-07-08T11:38:21.128Z,24.7
2017-07-08T11:39:23.219Z,24.9
2017-07-08T11:40:25.311Z,24.5
2017-07-08T11:41:27.420Z,24.6
2017-07-08T11:42:29.510Z,24.7
2017-07-08T11:43:31.607Z,25
2017-07-08T11:44:33.682Z,25.3
2017-07-08T11:45:35.786Z,25.2
2017-07-08T11:46:37.883Z,25.5
2017-07-08T11:47:39.989Z,25.4
2017-07-08T11:48:42.079Z,25.5
2017-07-08T11:49:44.159Z,25.4
2017-07-08T11:50:46.260Z,25.7
2017-07-08T11:51:48.337Z,25.8
2017-07-08T11:52:50.423Z,25.9
2017-07-08T11:53:52.517Z,25.7
2017-07-08T11:54:54.605Z,25.6
2017-07-08T11:55:56.702Z,25.3
2017-07-08T11:56:58.790Z,25.1
2017-07-08T11:58:00.913Z,24.8
2017-07-08T11:59:03.856Z,24.9
2017-07-08T12:00:05.973Z,24.9
2017-07-08T12:01:08.070Z,24.9
2017-07-08T12:02:10.161Z,24.6
2017-07-08T12:03:12.236Z,24.6
2017-07-08T12:04:14.322Z,24.5
2017-07-08T12:05:16.432Z,24.5
2017-07-08T12:06:18.514Z,24.7
2017-07-08T12:07:20.651Z,24.9
2017-07-08T12:08:22.732Z,24.7
2017-07-08T12:09:25.101Z,24.8
2017-07-08T12:10:27.188Z,24.9
2017-07-08T12:11:29.277Z,24.7
2017-07-08T12:12:31.381Z,24.6
2017-07-08T12:13:33.458Z,24.7
2017-07-08T12:14:35.636Z,24.4
2017-07-08T12:15:38.055Z,24.2
2017-07-08T12:16:40.151Z,24.2
2017-07-08T12:17:42.261Z,24
2017-07-08T12:18:44.340Z,23.8
2017-07-08T12:19:46.428Z,23.7
2017-07-08T12:20:48.506Z,23.7
2017-07-08T12:21:50.586Z,23.6
2017-07-08T12:22:52.678Z,23.5
2017-07-08T12:23:54.754Z,23.5
2017-07-08T12:24:56.829Z,23.4
2017-07-08T12:25:58.919Z,23.2
2017-07-08T12:27:01.011Z,23.5
2017-07-08T12:28:03.105Z,23.9
2017-07-08T12:29:05.193Z,24.1
2017-07-08T12:30:07.280Z,24.4
2017-07-08T12:31:09.374Z,24.7
2017-07-08T12:32:11.452Z,24.4
2017-07-08T12:33:13.549Z,24.2
2017-07-08T12:34:15.627Z,24.1
2017-07-08T12:35:18.063Z,24.1
2017-07-08T12:36:20.154Z,24
2017-07-08T12:37:22.239Z,23.9
2017-07-08T12:38:24.319Z,24.1
2017-07-08T12:39:26.413Z,24.5
2017-07-08T12:40:28.502Z,25
2017-07-08T12:41:30.592Z,25.1
2017-07-08T12:42:32.678Z,25.1
2017-07-08T12:43:34.763Z,25.1
2017-07-08T12:44:36.855Z,25
2017-07-08T12:45:38.933Z,25.4
2017-07-08T12:46:41.017Z,25.7
2017-07-08T12:47:43.104Z,26
2017-07-08T12:48:45.196Z,25.9
2017-07-08T12:49:47.290Z,25.5
2017-07-08T12:50:49.376Z,25.3
2017-07-08T12:51:51.471Z,25.3
2017-07-08T12:52:53.561Z,25.5
2017-07-08T12:53:55.647Z,25.7
2017-07-08T12:54:57.742Z,25.7
2017-07-08T12:55:59.821Z,25.5
2017-07-08T12:57:01.922Z,25.5
2017-07-08T12:58:04.019Z,25.4
2017-07-08T12:59:06.102Z,25.2
2017-07-08T13:00:08.188Z,24.9
2017-07-08T13:01:10.280Z,24.9
2017-07-08T13:02:12.377Z,24.8
2017-07-08T13:03:14.462Z,25.5
2017-07-08T13:04:16.557Z,25.7
2017-07-08T13:05:18.646Z,25.8
2017-07-08T13:06:20.728Z,25.7
2017-07-08T13:07:22.804Z,25.6
2017-07-08T13:08:24.890Z,25.3
2017-07-08T13:09:26.993Z,25.5
2017-07-08T13:10:29.071Z,25.4
2017-07-08T13:11:31.173Z,25.6
2017-07-08T13:12:33.255Z,25.5
2017-07-08T13:13:35.375Z,25.4
2017-07-08T13:14:37.463Z,25.6
2017-07-08T13:15:39.552Z,25.6
2017-07-08T13:16:41.663Z,25.4
2017-07-08T13:17:44.061Z,25.4
2017-07-08T13:18:46.173Z,25.4
2017-07-08T13:19:48.266Z,25.6
2017-07-08T13:20:50.575Z,25.9
2017-07-08T13:21:52.664Z,26.3
2017-07-08T13:22:54.766Z,26.4
2017-07-08T13:23:56.861Z,26.6
2017-07-08T13:24:58.946Z,26.9
2017-07-08T13:26:01.018Z,26.8
2017-07-08T13:27:03.116Z,26.9
2017-07-08T13:28:05.211Z,26.8
2017-07-08T13:29:07.293Z,26.5
2017-07-08T13:30:09.387Z,26.6
2017-07-08T13:31:11.462Z,26.8
2017-07-08T13:32:13.547Z,26.9
2017-07-08T13:33:15.645Z,26.9
2017-07-08T13:34:17.829Z,26.9
2017-07-08T13:35:19.960Z,27
2017-07-08T13:36:22.413Z,26.8
2017-07-08T13:37:24.509Z,26.8
2017-07-08T13:38:26.604Z,26.6
2017-07-08T13:39:28.684Z,26.4
2017-07-08T13:40:30.791Z,26.1
2017-07-08T13:41:32.883Z,26
2017-07-08T13:42:34.969Z,25.9
2017-07-08T13:43:37.064Z,25.5
2017-07-08T13:44:39.154Z,25.5
2017-07-08T13:45:41.235Z,25.4
2017-07-08T13:46:43.327Z,25.4
2017-07-08T13:47:45.415Z,25.1
2017-07-08T13:48:47.506Z,24.9
2017-07-08T13:49:49.938Z,24.7